sensor_id;sensor_type;location;lat;lon;timestamp;P1;durP1;ratioP1;P2;durP2;ratioP2
74245;SDS011;62601;51.044;13.788;2024-02-23T00:02:13;3.00;;;2.80;;
74245;SDS011;62601;51.044;13.788;2024-02-23T00:04:33;3.08;;;2.78;;
74245;SDS011;62601;51.044;13.788;2024-02-23T00:06:53;2.70;;;2.50;;
74245;SDS011;62601;51.044;13.788;2024-02-23T00:09:14;4.40;;;4.00;;
74245;SDS011;62601;51.044;13.788;2024-02-23T00:11:34;3.60;;;3.30;;
74245;SDS011;62601;51.044;13.788;2024-02-23T00:13:55;2.97;;;2.78;;
74245;SDS011;62601;51.044;13.788;2024-02-23T00:16:15;5.18;;;2.88;;
74245;SDS011;62601;51.044;13.788;2024-02-23T00:18:36;2.45;;;2.25;;
74245;SDS011;62601;51.044;13.788;2024-02-23T00:20:57;2.30;;;2.10;;
74245;SDS011;62601;51.044;13.788;2024-02-23T00:23:19;3.05;;;2.40;;
74245;SDS011;62601;51.044;13.788;2024-02-23T00:25:40;2.35;;;2.15;;
74245;SDS011;62601;51.044;13.788;2024-02-23T00:28:03;4.05;;;2.90;;
74245;SDS011;62601;51.044;13.788;2024-02-23T00:30:25;3.13;;;2.90;;
74245;SDS011;62601;51.044;13.788;2024-02-23T00:32:46;2.85;;;2.65;;
74245;SDS011;62601;51.044;13.788;2024-02-23T00:35:06;3.35;;;3.13;;
74245;SDS011;62601;51.044;13.788;2024-02-23T00:37:30;3.15;;;2.95;;
74245;SDS011;62601;51.044;13.788;2024-02-23T00:39:51;3.75;;;2.55;;
74245;SDS011;62601;51.044;13.788;2024-02-23T00:42:13;2.80;;;2.60;;
74245;SDS011;62601;51.044;13.788;2024-02-23T00:44:33;2.80;;;2.60;;
74245;SDS011;62601;51.044;13.788;2024-02-23T00:46:53;2.80;;;2.60;;
74245;SDS011;62601;51.044;13.788;2024-02-23T00:49:13;2.40;;;2.20;;
74245;SDS011;62601;51.044;13.788;2024-02-23T00:51:33;2.25;;;2.13;;
74245;SDS011;62601;51.044;13.788;2024-02-23T00:53:53;2.45;;;2.30;;
74245;SDS011;62601;51.044;13.788;2024-02-23T00:56:13;2.78;;;2.58;;
74245;SDS011;62601;51.044;13.788;2024-02-23T00:58:33;2.25;;;2.15;;
74245;SDS011;62601;51.044;13.788;2024-02-23T01:00:54;1.30;;;1.20;;
74245;SDS011;62601;51.044;13.788;2024-02-23T01:03:15;1.30;;;1.05;;
74245;SDS011;62601;51.044;13.788;2024-02-23T01:05:35;1.17;;;1.00;;
74245;SDS011;62601;51.044;13.788;2024-02-23T01:07:55;0.90;;;0.90;;
74245;SDS011;62601;51.044;13.788;2024-02-23T01:10:15;0.60;;;0.55;;
74245;SDS011;62601;51.044;13.788;2024-02-23T01:12:35;0.60;;;0.50;;
74245;SDS011;62601;51.044;13.788;2024-02-23T01:14:55;0.70;;;0.70;;
74245;SDS011;62601;51.044;13.788;2024-02-23T01:17:15;1.35;;;0.60;;
74245;SDS011;62601;51.044;13.788;2024-02-23T01:19:35;0.60;;;0.60;;
74245;SDS011;62601;51.044;13.788;2024-02-23T01:21:55;0.63;;;0.63;;
74245;SDS011;62601;51.044;13.788;2024-02-23T01:24:16;1.27;;;0.60;;
74245;SDS011;62601;51.044;13.788;2024-02-23T01:26:36;0.60;;;0.50;;
74245;SDS011;62601;51.044;13.788;2024-02-23T01:28:56;0.70;;;0.70;;
74245;SDS011;62601;51.044;13.788;2024-02-23T01:31:19;1.25;;;0.50;;
74245;SDS011;62601;51.044;13.788;2024-02-23T01:33:39;0.50;;;0.50;;
74245;SDS011;62601;51.044;13.788;2024-02-23T01:35:59;1.35;;;0.80;;
74245;SDS011;62601;51.044;13.788;2024-02-23T01:38:19;0.93;;;0.70;;
74245;SDS011;62601;51.044;13.788;2024-02-23T01:40:39;0.50;;;0.50;;
74245;SDS011;62601;51.044;13.788;2024-02-23T01:43:00;0.80;;;0.55;;
74245;SDS011;62601;51.044;13.788;2024-02-23T01:45:20;2.85;;;0.60;;
74245;SDS011;62601;51.044;13.788;2024-02-23T01:47:40;0.60;;;0.60;;
74245;SDS011;62601;51.044;13.788;2024-02-23T01:50:00;1.05;;;0.60;;
74245;SDS011;62601;51.044;13.788;2024-02-23T01:52:20;0.88;;;0.50;;
74245;SDS011;62601;51.044;13.788;2024-02-23T01:54:41;1.08;;;0.70;;
74245;SDS011;62601;51.044;13.788;2024-02-23T01:57:01;1.25;;;0.60;;
74245;SDS011;62601;51.044;13.788;2024-02-23T01:59:21;0.50;;;0.50;;
74245;SDS011;62601;51.044;13.788;2024-02-23T02:01:42;0.50;;;0.50;;
74245;SDS011;62601;51.044;13.788;2024-02-23T02:04:03;0.60;;;0.50;;
74245;SDS011;62601;51.044;13.788;2024-02-23T02:06:23;1.45;;;0.60;;
74245;SDS011;62601;51.044;13.788;2024-02-23T02:08:43;0.60;;;0.50;;
74245;SDS011;62601;51.044;13.788;2024-02-23T02:11:04;0.50;;;0.40;;
74245;SDS011;62601;51.044;13.788;2024-02-23T02:13:24;0.60;;;0.40;;
74245;SDS011;62601;51.044;13.788;2024-02-23T02:15:44;0.80;;;0.50;;
74245;SDS011;62601;51.044;13.788;2024-02-23T02:18:04;0.60;;;0.60;;
74245;SDS011;62601;51.044;13.788;2024-02-23T02:20:25;0.55;;;0.50;;
74245;SDS011;62601;51.044;13.788;2024-02-23T02:22:45;0.73;;;0.50;;
74245;SDS011;62601;51.044;13.788;2024-02-23T02:25:05;0.60;;;0.50;;
74245;SDS011;62601;51.044;13.788;2024-02-23T02:27:26;0.50;;;0.50;;
74245;SDS011;62601;51.044;13.788;2024-02-23T02:29:46;0.75;;;0.60;;
74245;SDS011;62601;51.044;13.788;2024-02-23T02:32:06;0.70;;;0.50;;
74245;SDS011;62601;51.044;13.788;2024-02-23T02:34:26;0.60;;;0.50;;
74245;SDS011;62601;51.044;13.788;2024-02-23T02:36:46;0.50;;;0.50;;
74245;SDS011;62601;51.044;13.788;2024-02-23T02:39:06;0.60;;;0.50;;
74245;SDS011;62601;51.044;13.788;2024-02-23T02:41:27;1.98;;;0.50;;
74245;SDS011;62601;51.044;13.788;2024-02-23T02:43:48;0.65;;;0.60;;
74245;SDS011;62601;51.044;13.788;2024-02-23T02:46:08;0.70;;;0.68;;
74245;SDS011;62601;51.044;13.788;2024-02-23T02:48:28;0.60;;;0.60;;
74245;SDS011;62601;51.044;13.788;2024-02-23T02:50:48;1.13;;;0.80;;
74245;SDS011;62601;51.044;13.788;2024-02-23T02:53:08;0.70;;;0.70;;
74245;SDS011;62601;51.044;13.788;2024-02-23T02:55:29;0.70;;;0.50;;
74245;SDS011;62601;51.044;13.788;2024-02-23T02:57:49;1.00;;;0.60;;
74245;SDS011;62601;51.044;13.788;2024-02-23T03:00:09;0.80;;;0.60;;
74245;SDS011;62601;51.044;13.788;2024-02-23T03:02:30;2.15;;;0.70;;
74245;SDS011;62601;51.044;13.788;2024-02-23T03:04:51;0.70;;;0.50;;
74245;SDS011;62601;51.044;13.788;2024-02-23T03:07:11;0.60;;;0.60;;
74245;SDS011;62601;51.044;13.788;2024-02-23T03:09:31;1.63;;;0.50;;
74245;SDS011;62601;51.044;13.788;2024-02-23T03:11:51;0.80;;;0.63;;
74245;SDS011;62601;51.044;13.788;2024-02-23T03:14:11;0.88;;;0.60;;
74245;SDS011;62601;51.044;13.788;2024-02-23T03:16:31;0.60;;;0.50;;
74245;SDS011;62601;51.044;13.788;2024-02-23T03:18:51;1.10;;;0.60;;
74245;SDS011;62601;51.044;13.788;2024-02-23T03:21:12;0.98;;;0.50;;
74245;SDS011;62601;51.044;13.788;2024-02-23T03:23:32;0.52;;;0.50;;
74245;SDS011;62601;51.044;13.788;2024-02-23T03:25:52;1.23;;;0.47;;
74245;SDS011;62601;51.044;13.788;2024-02-23T03:28:12;1.40;;;0.40;;
74245;SDS011;62601;51.044;13.788;2024-02-23T03:30:32;0.60;;;0.47;;
74245;SDS011;62601;51.044;13.788;2024-02-23T03:32:52;1.67;;;0.60;;
74245;SDS011;62601;51.044;13.788;2024-02-23T03:35:12;1.05;;;0.50;;
74245;SDS011;62601;51.044;13.788;2024-02-23T03:37:32;0.50;;;0.50;;
74245;SDS011;62601;51.044;13.788;2024-02-23T03:39:52;1.35;;;0.60;;
74245;SDS011;62601;51.044;13.788;2024-02-23T03:42:13;1.25;;;0.40;;
74245;SDS011;62601;51.044;13.788;2024-02-23T03:44:33;0.88;;;0.50;;
74245;SDS011;62601;51.044;13.788;2024-02-23T03:46:53;0.93;;;0.50;;
74245;SDS011;62601;51.044;13.788;2024-02-23T03:49:13;1.02;;;0.88;;
74245;SDS011;62601;51.044;13.788;2024-02-23T03:51:33;1.50;;;0.50;;
74245;SDS011;62601;51.044;13.788;2024-02-23T03:53:53;0.80;;;0.60;;
74245;SDS011;62601;51.044;13.788;2024-02-23T03:56:13;1.80;;;0.50;;
74245;SDS011;62601;51.044;13.788;2024-02-23T03:58:33;0.60;;;0.50;;
74245;SDS011;62601;51.044;13.788;2024-02-23T04:00:53;0.50;;;0.40;;
74245;SDS011;62601;51.044;13.788;2024-02-23T04:03:13;0.50;;;0.50;;
74245;SDS011;62601;51.044;13.788;2024-02-23T04:05:34;0.70;;;0.50;;
74245;SDS011;62601;51.044;13.788;2024-02-23T04:07:54;2.15;;;0.50;;
74245;SDS011;62601;51.044;13.788;2024-02-23T04:10:14;1.45;;;0.70;;
74245;SDS011;62601;51.044;13.788;2024-02-23T04:12:34;0.70;;;0.40;;
74245;SDS011;62601;51.044;13.788;2024-02-23T04:14:54;1.15;;;0.50;;
74245;SDS011;62601;51.044;13.788;2024-02-23T04:17:15;0.60;;;0.40;;
74245;SDS011;62601;51.044;13.788;2024-02-23T04:19:35;0.55;;;0.55;;
74245;SDS011;62601;51.044;13.788;2024-02-23T04:21:55;0.57;;;0.50;;
74245;SDS011;62601;51.044;13.788;2024-02-23T04:24:15;0.60;;;0.40;;
74245;SDS011;62601;51.044;13.788;2024-02-23T04:26:35;0.80;;;0.63;;
74245;SDS011;62601;51.044;13.788;2024-02-23T04:28:55;3.25;;;0.68;;
74245;SDS011;62601;51.044;13.788;2024-02-23T04:31:16;2.00;;;0.50;;
74245;SDS011;62601;51.044;13.788;2024-02-23T04:33:36;0.70;;;0.40;;
74245;SDS011;62601;51.044;13.788;2024-02-23T04:35:57;0.50;;;0.40;;
74245;SDS011;62601;51.044;13.788;2024-02-23T04:38:17;0.95;;;0.43;;
74245;SDS011;62601;51.044;13.788;2024-02-23T04:40:37;0.73;;;0.40;;
74245;SDS011;62601;51.044;13.788;2024-02-23T04:42:57;0.70;;;0.50;;
74245;SDS011;62601;51.044;13.788;2024-02-23T04:45:17;1.58;;;0.50;;
74245;SDS011;62601;51.044;13.788;2024-02-23T04:47:37;0.75;;;0.50;;
74245;SDS011;62601;51.044;13.788;2024-02-23T04:49:57;0.80;;;0.50;;
74245;SDS011;62601;51.044;13.788;2024-02-23T04:52:17;1.23;;;0.50;;
74245;SDS011;62601;51.044;13.788;2024-02-23T04:54:38;0.77;;;0.75;;
74245;SDS011;62601;51.044;13.788;2024-02-23T04:56:58;0.50;;;0.50;;
74245;SDS011;62601;51.044;13.788;2024-02-23T04:59:18;0.88;;;0.40;;
74245;SDS011;62601;51.044;13.788;2024-02-23T05:01:38;0.98;;;0.50;;
74245;SDS011;62601;51.044;13.788;2024-02-23T05:03:58;1.75;;;0.60;;
74245;SDS011;62601;51.044;13.788;2024-02-23T05:06:18;1.73;;;0.50;;
74245;SDS011;62601;51.044;13.788;2024-02-23T05:08:38;1.67;;;0.50;;
74245;SDS011;62601;51.044;13.788;2024-02-23T05:10:58;0.82;;;0.40;;
74245;SDS011;62601;51.044;13.788;2024-02-23T05:13:18;0.60;;;0.50;;
74245;SDS011;62601;51.044;13.788;2024-02-23T05:15:39;1.67;;;0.50;;
74245;SDS011;62601;51.044;13.788;2024-02-23T05:17:59;2.65;;;0.70;;
74245;SDS011;62601;51.044;13.788;2024-02-23T05:20:19;1.65;;;0.50;;
74245;SDS011;62601;51.044;13.788;2024-02-23T05:22:39;1.10;;;0.57;;
74245;SDS011;62601;51.044;13.788;2024-02-23T05:24:59;0.80;;;0.60;;
74245;SDS011;62601;51.044;13.788;2024-02-23T05:27:19;0.50;;;0.40;;
74245;SDS011;62601;51.044;13.788;2024-02-23T05:29:42;0.82;;;0.60;;
74245;SDS011;62601;51.044;13.788;2024-02-23T05:32:02;0.75;;;0.52;;
74245;SDS011;62601;51.044;13.788;2024-02-23T05:34:23;0.98;;;0.60;;
74245;SDS011;62601;51.044;13.788;2024-02-23T05:36:43;0.88;;;0.60;;
74245;SDS011;62601;51.044;13.788;2024-02-23T05:39:03;0.50;;;0.50;;
74245;SDS011;62601;51.044;13.788;2024-02-23T05:41:23;0.45;;;0.45;;
74245;SDS011;62601;51.044;13.788;2024-02-23T05:43:43;1.83;;;0.70;;
74245;SDS011;62601;51.044;13.788;2024-02-23T05:46:03;1.50;;;0.57;;
74245;SDS011;62601;51.044;13.788;2024-02-23T05:48:23;0.60;;;0.50;;
74245;SDS011;62601;51.044;13.788;2024-02-23T05:50:43;1.50;;;0.65;;
74245;SDS011;62601;51.044;13.788;2024-02-23T05:53:03;4.43;;;0.60;;
74245;SDS011;62601;51.044;13.788;2024-02-23T05:55:24;1.20;;;0.50;;
74245;SDS011;62601;51.044;13.788;2024-02-23T05:57:44;0.60;;;0.50;;
74245;SDS011;62601;51.044;13.788;2024-02-23T06:00:04;1.70;;;0.70;;
74245;SDS011;62601;51.044;13.788;2024-02-23T06:02:25;1.00;;;0.60;;
74245;SDS011;62601;51.044;13.788;2024-02-23T06:04:45;1.35;;;0.60;;
74245;SDS011;62601;51.044;13.788;2024-02-23T06:07:05;1.73;;;0.93;;
74245;SDS011;62601;51.044;13.788;2024-02-23T06:09:25;1.30;;;0.70;;
74245;SDS011;62601;51.044;13.788;2024-02-23T06:11:45;1.05;;;0.50;;
74245;SDS011;62601;51.044;13.788;2024-02-23T06:14:05;1.30;;;0.40;;
74245;SDS011;62601;51.044;13.788;2024-02-23T06:16:26;0.75;;;0.50;;
74245;SDS011;62601;51.044;13.788;2024-02-23T06:18:46;1.17;;;0.60;;
74245;SDS011;62601;51.044;13.788;2024-02-23T06:21:13;2.55;;;0.50;;
74245;SDS011;62601;51.044;13.788;2024-02-23T06:23:33;3.35;;;0.95;;
74245;SDS011;62601;51.044;13.788;2024-02-23T06:25:53;0.60;;;0.40;;
74245;SDS011;62601;51.044;13.788;2024-02-23T06:28:13;1.25;;;0.60;;
74245;SDS011;62601;51.044;13.788;2024-02-23T06:30:33;0.50;;;0.50;;
74245;SDS011;62601;51.044;13.788;2024-02-23T06:32:53;1.95;;;0.65;;
74245;SDS011;62601;51.044;13.788;2024-02-23T06:35:13;0.90;;;0.70;;
74245;SDS011;62601;51.044;13.788;2024-02-23T06:37:33;1.20;;;0.55;;
74245;SDS011;62601;51.044;13.788;2024-02-23T06:39:53;1.02;;;0.50;;
74245;SDS011;62601;51.044;13.788;2024-02-23T06:42:14;1.08;;;0.68;;
74245;SDS011;62601;51.044;13.788;2024-02-23T06:44:34;4.70;;;0.60;;
74245;SDS011;62601;51.044;13.788;2024-02-23T06:46:54;2.25;;;0.90;;
74245;SDS011;62601;51.044;13.788;2024-02-23T06:49:14;2.00;;;0.55;;
74245;SDS011;62601;51.044;13.788;2024-02-23T06:51:34;2.72;;;0.90;;
74245;SDS011;62601;51.044;13.788;2024-02-23T06:53:54;4.32;;;0.60;;
74245;SDS011;62601;51.044;13.788;2024-02-23T06:56:14;0.50;;;0.50;;
74245;SDS011;62601;51.044;13.788;2024-02-23T06:58:34;1.25;;;0.73;;
74245;SDS011;62601;51.044;13.788;2024-02-23T07:00:54;1.63;;;0.60;;
74245;SDS011;62601;51.044;13.788;2024-02-23T07:03:15;1.50;;;0.60;;
74245;SDS011;62601;51.044;13.788;2024-02-23T07:05:35;0.95;;;0.43;;
74245;SDS011;62601;51.044;13.788;2024-02-23T07:07:55;0.93;;;0.50;;
74245;SDS011;62601;51.044;13.788;2024-02-23T07:10:15;1.05;;;0.50;;
74245;SDS011;62601;51.044;13.788;2024-02-23T07:12:35;1.13;;;0.60;;
74245;SDS011;62601;51.044;13.788;2024-02-23T07:14:55;0.90;;;0.60;;
74245;SDS011;62601;51.044;13.788;2024-02-23T07:17:19;1.92;;;1.15;;
74245;SDS011;62601;51.044;13.788;2024-02-23T07:19:40;3.65;;;0.80;;
74245;SDS011;62601;51.044;13.788;2024-02-23T07:22:02;1.55;;;0.90;;
74245;SDS011;62601;51.044;13.788;2024-02-23T07:24:22;4.72;;;0.80;;
74245;SDS011;62601;51.044;13.788;2024-02-23T07:26:43;0.82;;;0.50;;
74245;SDS011;62601;51.044;13.788;2024-02-23T07:29:03;1.30;;;0.50;;
74245;SDS011;62601;51.044;13.788;2024-02-23T07:31:24;2.03;;;0.50;;
74245;SDS011;62601;51.044;13.788;2024-02-23T07:33:46;2.00;;;1.33;;
74245;SDS011;62601;51.044;13.788;2024-02-23T07:36:07;0.80;;;0.60;;
74245;SDS011;62601;51.044;13.788;2024-02-23T07:38:37;1.00;;;0.90;;
74245;SDS011;62601;51.044;13.788;2024-02-23T07:40:58;1.92;;;0.80;;
74245;SDS011;62601;51.044;13.788;2024-02-23T07:43:20;1.15;;;0.70;;
74245;SDS011;62601;51.044;13.788;2024-02-23T07:45:41;2.90;;;0.93;;
74245;SDS011;62601;51.044;13.788;2024-02-23T07:48:03;1.55;;;1.40;;
74245;SDS011;62601;51.044;13.788;2024-02-23T07:50:25;1.25;;;0.70;;
74245;SDS011;62601;51.044;13.788;2024-02-23T07:52:46;1.35;;;0.60;;
74245;SDS011;62601;51.044;13.788;2024-02-23T07:55:08;1.02;;;0.60;;
74245;SDS011;62601;51.044;13.788;2024-02-23T07:57:29;2.72;;;0.50;;
74245;SDS011;62601;51.044;13.788;2024-02-23T07:59:50;2.17;;;0.60;;
74245;SDS011;62601;51.044;13.788;2024-02-23T08:02:12;0.70;;;0.45;;
74245;SDS011;62601;51.044;13.788;2024-02-23T08:04:33;1.45;;;1.00;;
74245;SDS011;62601;51.044;13.788;2024-02-23T08:06:55;1.33;;;0.60;;
74245;SDS011;62601;51.044;13.788;2024-02-23T08:09:16;1.05;;;0.55;;
74245;SDS011;62601;51.044;13.788;2024-02-23T08:11:37;1.25;;;0.70;;
74245;SDS011;62601;51.044;13.788;2024-02-23T08:13:59;2.53;;;0.47;;
74245;SDS011;62601;51.044;13.788;2024-02-23T08:16:20;0.80;;;0.55;;
74245;SDS011;62601;51.044;13.788;2024-02-23T08:18:41;5.43;;;0.70;;
74245;SDS011;62601;51.044;13.788;2024-02-23T08:21:03;0.77;;;0.43;;
74245;SDS011;62601;51.044;13.788;2024-02-23T08:23:24;2.05;;;0.65;;
74245;SDS011;62601;51.044;13.788;2024-02-23T08:25:46;2.60;;;0.70;;
74245;SDS011;62601;51.044;13.788;2024-02-23T08:28:07;0.50;;;0.40;;
74245;SDS011;62601;51.044;13.788;2024-02-23T08:30:29;0.82;;;0.60;;
74245;SDS011;62601;51.044;13.788;2024-02-23T08:32:50;1.20;;;0.55;;
74245;SDS011;62601;51.044;13.788;2024-02-23T08:35:12;2.25;;;0.77;;
74245;SDS011;62601;51.044;13.788;2024-02-23T08:37:33;0.75;;;0.55;;
74245;SDS011;62601;51.044;13.788;2024-02-23T08:39:55;2.15;;;1.15;;
74245;SDS011;62601;51.044;13.788;2024-02-23T08:42:16;0.98;;;0.50;;
74245;SDS011;62601;51.044;13.788;2024-02-23T08:44:36;1.52;;;0.75;;
74245;SDS011;62601;51.044;13.788;2024-02-23T08:46:56;0.60;;;0.47;;
74245;SDS011;62601;51.044;13.788;2024-02-23T08:49:16;1.40;;;0.50;;
74245;SDS011;62601;51.044;13.788;2024-02-23T08:51:36;3.15;;;0.65;;
74245;SDS011;62601;51.044;13.788;2024-02-23T08:53:57;1.33;;;0.75;;
74245;SDS011;62601;51.044;13.788;2024-02-23T08:56:17;1.08;;;0.70;;
74245;SDS011;62601;51.044;13.788;2024-02-23T08:58:37;0.80;;;0.60;;
74245;SDS011;62601;51.044;13.788;2024-02-23T09:00:57;0.98;;;0.55;;
74245;SDS011;62601;51.044;13.788;2024-02-23T09:03:17;0.88;;;0.60;;
74245;SDS011;62601;51.044;13.788;2024-02-23T09:05:37;1.23;;;0.80;;
74245;SDS011;62601;51.044;13.788;2024-02-23T09:07:57;2.45;;;0.70;;
74245;SDS011;62601;51.044;13.788;2024-02-23T09:10:20;2.47;;;0.77;;
74245;SDS011;62601;51.044;13.788;2024-02-23T09:12:41;1.55;;;0.70;;
74245;SDS011;62601;51.044;13.788;2024-02-23T09:15:01;1.92;;;0.70;;
74245;SDS011;62601;51.044;13.788;2024-02-23T09:17:24;2.15;;;0.50;;
74245;SDS011;62601;51.044;13.788;2024-02-23T09:19:44;1.33;;;0.70;;
74245;SDS011;62601;51.044;13.788;2024-02-23T09:22:04;0.85;;;0.60;;
74245;SDS011;62601;51.044;13.788;2024-02-23T09:24:24;0.80;;;0.60;;
74245;SDS011;62601;51.044;13.788;2024-02-23T09:26:46;1.40;;;0.82;;
74245;SDS011;62601;51.044;13.788;2024-02-23T09:29:06;2.00;;;0.70;;
74245;SDS011;62601;51.044;13.788;2024-02-23T09:31:26;2.58;;;1.83;;
74245;SDS011;62601;51.044;13.788;2024-02-23T09:33:46;1.55;;;0.70;;
74245;SDS011;62601;51.044;13.788;2024-02-23T09:36:06;1.70;;;0.68;;
74245;SDS011;62601;51.044;13.788;2024-02-23T09:38:27;1.35;;;0.65;;
74245;SDS011;62601;51.044;13.788;2024-02-23T09:40:47;1.13;;;0.60;;
74245;SDS011;62601;51.044;13.788;2024-02-23T09:43:07;1.05;;;0.60;;
74245;SDS011;62601;51.044;13.788;2024-02-23T09:45:27;1.25;;;0.70;;
74245;SDS011;62601;51.044;13.788;2024-02-23T09:47:48;1.13;;;0.77;;
74245;SDS011;62601;51.044;13.788;2024-02-23T09:50:08;3.50;;;2.78;;
74245;SDS011;62601;51.044;13.788;2024-02-23T09:52:29;2.80;;;1.20;;
74245;SDS011;62601;51.044;13.788;2024-02-23T09:54:49;3.80;;;0.68;;
74245;SDS011;62601;51.044;13.788;2024-02-23T09:57:09;1.02;;;0.60;;
74245;SDS011;62601;51.044;13.788;2024-02-23T09:59:30;1.77;;;0.73;;
74245;SDS011;62601;51.044;13.788;2024-02-23T10:01:51;2.65;;;0.80;;
74245;SDS011;62601;51.044;13.788;2024-02-23T10:04:11;1.63;;;0.70;;
74245;SDS011;62601;51.044;13.788;2024-02-23T10:06:31;1.88;;;0.63;;
74245;SDS011;62601;51.044;13.788;2024-02-23T10:08:51;0.77;;;0.50;;
74245;SDS011;62601;51.044;13.788;2024-02-23T10:11:11;1.17;;;0.60;;
74245;SDS011;62601;51.044;13.788;2024-02-23T10:13:31;0.85;;;0.50;;
74245;SDS011;62601;51.044;13.788;2024-02-23T10:15:52;2.75;;;1.33;;
74245;SDS011;62601;51.044;13.788;2024-02-23T10:18:15;2.15;;;0.70;;
74245;SDS011;62601;51.044;13.788;2024-02-23T10:20:35;0.70;;;0.70;;
74245;SDS011;62601;51.044;13.788;2024-02-23T10:22:55;1.13;;;0.60;;
74245;SDS011;62601;51.044;13.788;2024-02-23T10:25:16;1.38;;;0.90;;
74245;SDS011;62601;51.044;13.788;2024-02-23T10:27:37;0.95;;;0.63;;
74245;SDS011;62601;51.044;13.788;2024-02-23T10:29:57;2.35;;;1.05;;
74245;SDS011;62601;51.044;13.788;2024-02-23T10:32:20;2.45;;;2.05;;
74245;SDS011;62601;51.044;13.788;2024-02-23T10:34:41;0.98;;;0.60;;
74245;SDS011;62601;51.044;13.788;2024-02-23T10:37:02;1.70;;;0.73;;
74245;SDS011;62601;51.044;13.788;2024-02-23T10:39:24;5.10;;;0.70;;
74245;SDS011;62601;51.044;13.788;2024-02-23T10:41:50;5.25;;;0.60;;
74245;SDS011;62601;51.044;13.788;2024-02-23T10:44:11;1.25;;;0.68;;
74245;SDS011;62601;51.044;13.788;2024-02-23T10:46:31;1.67;;;0.60;;
74245;SDS011;62601;51.044;13.788;2024-02-23T10:48:51;4.07;;;0.60;;
74245;SDS011;62601;51.044;13.788;2024-02-23T10:51:14;4.22;;;2.55;;
74245;SDS011;62601;51.044;13.788;2024-02-23T10:53:34;3.45;;;1.58;;
74245;SDS011;62601;51.044;13.788;2024-02-23T10:55:56;1.45;;;0.80;;
74245;SDS011;62601;51.044;13.788;2024-02-23T10:58:16;1.15;;;0.80;;
74245;SDS011;62601;51.044;13.788;2024-02-23T11:00:36;1.80;;;1.05;;
74245;SDS011;62601;51.044;13.788;2024-02-23T11:02:56;3.53;;;0.50;;
74245;SDS011;62601;51.044;13.788;2024-02-23T11:05:16;1.40;;;0.50;;
74245;SDS011;62601;51.044;13.788;2024-02-23T11:07:38;0.85;;;0.63;;
74245;SDS011;62601;51.044;13.788;2024-02-23T11:09:58;1.30;;;0.73;;
74245;SDS011;62601;51.044;13.788;2024-02-23T11:12:25;0.70;;;0.60;;
74245;SDS011;62601;51.044;13.788;2024-02-23T11:14:45;0.90;;;0.70;;
74245;SDS011;62601;51.044;13.788;2024-02-23T11:17:05;0.70;;;0.50;;
74245;SDS011;62601;51.044;13.788;2024-02-23T11:19:35;1.08;;;0.65;;
74245;SDS011;62601;51.044;13.788;2024-02-23T11:21:55;1.27;;;0.45;;
74245;SDS011;62601;51.044;13.788;2024-02-23T11:24:18;0.60;;;0.50;;
74245;SDS011;62601;51.044;13.788;2024-02-23T11:26:38;2.83;;;0.80;;
74245;SDS011;62601;51.044;13.788;2024-02-23T11:28:58;1.83;;;0.52;;
74245;SDS011;62601;51.044;13.788;2024-02-23T11:31:25;0.50;;;0.40;;
74245;SDS011;62601;51.044;13.788;2024-02-23T11:33:48;1.90;;;0.88;;
74245;SDS011;62601;51.044;13.788;2024-02-23T11:36:09;1.23;;;0.70;;
74245;SDS011;62601;51.044;13.788;2024-02-23T11:38:29;2.17;;;0.65;;
74245;SDS011;62601;51.044;13.788;2024-02-23T11:40:49;1.45;;;0.60;;
74245;SDS011;62601;51.044;13.788;2024-02-23T11:43:09;0.82;;;0.60;;
74245;SDS011;62601;51.044;13.788;2024-02-23T11:45:30;0.70;;;0.50;;
74245;SDS011;62601;51.044;13.788;2024-02-23T11:47:50;1.50;;;0.60;;
74245;SDS011;62601;51.044;13.788;2024-02-23T11:50:10;2.47;;;1.50;;
74245;SDS011;62601;51.044;13.788;2024-02-23T11:52:30;1.13;;;0.80;;
74245;SDS011;62601;51.044;13.788;2024-02-23T11:54:50;1.58;;;0.73;;
74245;SDS011;62601;51.044;13.788;2024-02-23T11:57:11;1.27;;;0.63;;
74245;SDS011;62601;51.044;13.788;2024-02-23T11:59:32;2.53;;;0.70;;
74245;SDS011;62601;51.044;13.788;2024-02-23T12:01:52;3.47;;;0.70;;
74245;SDS011;62601;51.044;13.788;2024-02-23T12:04:12;0.70;;;0.70;;
74245;SDS011;62601;51.044;13.788;2024-02-23T12:06:33;1.83;;;0.63;;
74245;SDS011;62601;51.044;13.788;2024-02-23T12:08:53;0.80;;;0.80;;
74245;SDS011;62601;51.044;13.788;2024-02-23T12:11:13;1.20;;;0.57;;
74245;SDS011;62601;51.044;13.788;2024-02-23T12:13:33;0.60;;;0.50;;
74245;SDS011;62601;51.044;13.788;2024-02-23T12:15:53;0.70;;;0.60;;
74245;SDS011;62601;51.044;13.788;2024-02-23T12:18:13;1.63;;;0.80;;
74245;SDS011;62601;51.044;13.788;2024-02-23T12:20:34;0.90;;;0.60;;
74245;SDS011;62601;51.044;13.788;2024-02-23T12:22:54;2.35;;;0.70;;
74245;SDS011;62601;51.044;13.788;2024-02-23T12:25:14;2.25;;;0.57;;
74245;SDS011;62601;51.044;13.788;2024-02-23T12:27:35;1.48;;;0.50;;
74245;SDS011;62601;51.044;13.788;2024-02-23T12:29:55;0.63;;;0.55;;
74245;SDS011;62601;51.044;13.788;2024-02-23T12:32:15;0.90;;;0.60;;
74245;SDS011;62601;51.044;13.788;2024-02-23T12:34:39;1.25;;;0.70;;
74245;SDS011;62601;51.044;13.788;2024-02-23T12:36:59;1.35;;;1.25;;
74245;SDS011;62601;51.044;13.788;2024-02-23T12:39:21;2.67;;;2.13;;
74245;SDS011;62601;51.044;13.788;2024-02-23T12:41:41;2.08;;;0.60;;
74245;SDS011;62601;51.044;13.788;2024-02-23T12:44:01;0.60;;;0.50;;
74245;SDS011;62601;51.044;13.788;2024-02-23T12:46:22;2.00;;;0.68;;
74245;SDS011;62601;51.044;13.788;2024-02-23T12:48:42;2.45;;;0.70;;
74245;SDS011;62601;51.044;13.788;2024-02-23T12:51:02;1.52;;;0.47;;
74245;SDS011;62601;51.044;13.788;2024-02-23T12:53:32;0.40;;;0.40;;
74245;SDS011;62601;51.044;13.788;2024-02-23T12:55:53;0.93;;;0.60;;
74245;SDS011;62601;51.044;13.788;2024-02-23T12:58:13;1.40;;;0.55;;
74245;SDS011;62601;51.044;13.788;2024-02-23T13:00:33;0.70;;;0.50;;
74245;SDS011;62601;51.044;13.788;2024-02-23T13:02:53;1.08;;;0.60;;
74245;SDS011;62601;51.044;13.788;2024-02-23T13:05:13;2.50;;;0.63;;
74245;SDS011;62601;51.044;13.788;2024-02-23T13:07:33;0.55;;;0.50;;
74245;SDS011;62601;51.044;13.788;2024-02-23T13:09:54;1.30;;;0.60;;
74245;SDS011;62601;51.044;13.788;2024-02-23T13:12:17;1.30;;;0.60;;
74245;SDS011;62601;51.044;13.788;2024-02-23T13:14:37;1.02;;;0.75;;
74245;SDS011;62601;51.044;13.788;2024-02-23T13:16:57;0.85;;;0.52;;
74245;SDS011;62601;51.044;13.788;2024-02-23T13:19:17;0.70;;;0.60;;
74245;SDS011;62601;51.044;13.788;2024-02-23T13:21:37;1.10;;;0.60;;
74245;SDS011;62601;51.044;13.788;2024-02-23T13:23:57;0.80;;;0.63;;
74245;SDS011;62601;51.044;13.788;2024-02-23T13:26:17;2.47;;;1.63;;
74245;SDS011;62601;51.044;13.788;2024-02-23T13:28:37;2.08;;;0.95;;
74245;SDS011;62601;51.044;13.788;2024-02-23T13:30:57;1.23;;;0.63;;
74245;SDS011;62601;51.044;13.788;2024-02-23T13:33:17;1.50;;;1.20;;
74245;SDS011;62601;51.044;13.788;2024-02-23T13:35:38;0.73;;;0.55;;
74245;SDS011;62601;51.044;13.788;2024-02-23T13:37:58;1.95;;;1.42;;
74245;SDS011;62601;51.044;13.788;2024-02-23T13:40:18;8.48;;;6.18;;
74245;SDS011;62601;51.044;13.788;2024-02-23T13:42:38;2.00;;;1.40;;
74245;SDS011;62601;51.044;13.788;2024-02-23T13:44:58;0.60;;;0.45;;
74245;SDS011;62601;51.044;13.788;2024-02-23T13:47:18;1.58;;;0.50;;
74245;SDS011;62601;51.044;13.788;2024-02-23T13:49:38;0.73;;;0.40;;
74245;SDS011;62601;51.044;13.788;2024-02-23T13:51:58;1.27;;;0.50;;
74245;SDS011;62601;51.044;13.788;2024-02-23T13:54:18;1.50;;;0.90;;